Broadmoor, Illinois
Current Conditions -  °F | °C
As of 2:15 PM on Sunday 21 Dec 2014 (Local Time) from KC75 Reporting Station
Overcast Overcast  
Wind Chill: 28°   Ceiling: 2700
Heat Index: 38°   Visibility: 10mi
Dew Point: 30°   Wind: 17mph
Humidity: 75%   Direction: 160°SSE
Pressure: 30.04"   Gusts: 22mph
Location:  41.1472°N, 89.6399°W
Report Text: KC75 212015Z AUTO 16015G19KT 10SM OVC027 03/M01 A3004 RMK AO2 T00311010
Loading
Personal Weather Stations






























Interactive Weather Map New forecast layout! Learn more

10-Day Weather Forecast

Advertisements
Track Severe Weather on mobile